createdAt,value
2022-12-02T00:00:00.771Z,91.26
2022-12-02T00:02:33.721Z,90.99
2022-12-02T00:05:22.104Z,90.35
2022-12-02T00:07:54.461Z,90.06
2022-12-02T00:10:26.638Z,89.40
2022-12-02T00:12:54.107Z,89.22
2022-12-02T00:15:42.398Z,89.30
2022-12-02T00:18:14.419Z,89.03
2022-12-02T00:20:42.611Z,89.08
2022-12-02T00:23:10.744Z,89.04
2022-12-02T00:25:37.976Z,88.87
2022-12-02T00:28:05.675Z,88.71
2022-12-02T00:30:33.143Z,88.43
2022-12-02T00:33:00.469Z,88.37
2022-12-02T00:35:27.796Z,87.81
2022-12-02T00:37:55.156Z,87.83
2022-12-02T00:40:22.529Z,87.46
2022-12-02T00:42:49.809Z,87.24
2022-12-02T00:45:36.144Z,87.07
2022-12-02T00:48:03.743Z,86.96
2022-12-02T00:50:30.971Z,86.36
2022-12-02T00:52:58.190Z,86.08
2022-12-02T00:55:25.201Z,86.06
2022-12-02T00:57:52.419Z,86.24
2022-12-02T01:00:20.118Z,86.10
2022-12-02T01:02:47.362Z,86.20
2022-12-02T01:05:14.601Z,86.29
2022-12-02T01:07:41.824Z,86.54
2022-12-02T01:10:09.574Z,86.15
2022-12-02T01:12:36.842Z,86.25
2022-12-02T01:15:04.773Z,86.51
2022-12-02T01:17:32.779Z,86.36
2022-12-02T01:19:59.944Z,86.17
2022-12-02T01:22:27.145Z,86.40
2022-12-02T01:24:54.314Z,86.34
2022-12-02T01:27:21.718Z,86.05
2022-12-02T01:29:48.929Z,86.30
2022-12-02T01:32:16.436Z,86.16
2022-12-02T01:34:43.750Z,85.96
2022-12-02T01:37:11.078Z,85.81
2022-12-02T01:39:38.494Z,85.88
2022-12-02T01:42:06.017Z,85.10
2022-12-02T01:44:33.656Z,85.26
2022-12-02T01:47:00.989Z,85.10
2022-12-02T01:49:28.843Z,84.85
2022-12-02T01:51:56.302Z,84.69
2022-12-02T01:54:23.498Z,84.94
2022-12-02T01:56:50.921Z,84.85
2022-12-02T01:59:19.173Z,84.07
2022-12-02T02:01:46.480Z,84.46
2022-12-02T02:04:13.913Z,84.57
2022-12-02T02:06:46.984Z,84.31
2022-12-02T02:09:15.383Z,84.53
2022-12-02T02:11:42.825Z,84.29
2022-12-02T02:14:12.991Z,84.04
2022-12-02T02:16:40.720Z,84.13
2022-12-02T02:19:13.796Z,84.39
2022-12-02T02:21:46.667Z,84.61
2022-12-02T02:24:14.645Z,84.03
2022-12-02T02:26:42.585Z,84.55
2022-12-02T02:29:10.505Z,84.24
2022-12-02T02:31:39.595Z,84.06
2022-12-02T02:34:07.547Z,84.17
2022-12-02T02:36:35.636Z,83.95
2022-12-02T02:39:04.636Z,84.20
2022-12-02T02:41:34.107Z,83.55
2022-12-02T02:44:02.037Z,83.60
2022-12-02T02:46:30.211Z,83.31
2022-12-02T02:48:58.275Z,83.11
2022-12-02T02:51:25.896Z,82.71
2022-12-02T02:53:53.386Z,82.83
2022-12-02T02:56:21.480Z,82.64
2022-12-02T02:58:49.186Z,82.65
2022-12-02T03:01:25.161Z,82.45
2022-12-02T03:03:59.646Z,82.34
2022-12-02T03:06:30.436Z,82.50
2022-12-02T03:09:00.066Z,82.40
2022-12-02T03:11:29.475Z,82.26
2022-12-02T03:13:58.005Z,82.22
2022-12-02T03:16:27.147Z,82.24
2022-12-02T03:18:56.455Z,82.36
2022-12-02T03:21:26.239Z,82.19
2022-12-02T03:23:57.507Z,81.63
2022-12-02T03:26:25.476Z,81.99
2022-12-02T03:28:54.204Z,82.34
2022-12-02T03:31:22.503Z,81.92
2022-12-02T03:33:51.126Z,82.11
2022-12-02T03:36:19.065Z,82.01
2022-12-02T03:38:47.006Z,82.07
2022-12-02T03:41:15.145Z,82.16
2022-12-02T03:43:43.385Z,82.33
2022-12-02T03:46:12.183Z,81.97
2022-12-02T03:48:40.532Z,81.86
2022-12-02T03:51:09.884Z,81.87
2022-12-02T03:53:38.115Z,82.10
2022-12-02T03:56:07.774Z,81.96
2022-12-02T03:58:55.766Z,82.18
2022-12-02T04:01:24.525Z,81.71
2022-12-02T04:03:52.095Z,81.76
2022-12-02T04:06:19.715Z,81.81
2022-12-02T04:08:47.557Z,82.06
2022-12-02T04:11:15.436Z,81.39
2022-12-02T04:13:43.158Z,81.54
2022-12-02T04:16:10.714Z,82.08
2022-12-02T04:18:38.246Z,82.12
2022-12-02T04:21:05.985Z,81.63
2022-12-02T04:23:33.525Z,81.49
2022-12-02T04:26:01.071Z,81.79
2022-12-02T04:28:28.736Z,81.94
2022-12-02T04:30:56.629Z,82.08
2022-12-02T04:33:24.166Z,82.01
2022-12-02T04:35:51.757Z,81.88
2022-12-02T04:38:19.686Z,82.18
2022-12-02T04:40:47.476Z,82.26
2022-12-02T04:43:14.976Z,80.97
2022-12-02T04:45:42.682Z,80.23
2022-12-02T04:48:10.216Z,80.39
2022-12-02T04:50:37.779Z,80.33
2022-12-02T04:53:05.335Z,80.02
2022-12-02T04:55:33.016Z,79.42
2022-12-02T04:58:00.685Z,79.08
2022-12-02T05:00:28.165Z,78.87
2022-12-02T05:02:57.667Z,79.05
2022-12-02T05:05:25.235Z,79.29
2022-12-02T05:07:52.534Z,78.75
2022-12-02T05:10:20.106Z,79.23
2022-12-02T05:12:47.966Z,79.26
2022-12-02T05:15:15.846Z,79.72
2022-12-02T05:17:43.455Z,79.65
2022-12-02T05:20:11.937Z,79.77
2022-12-02T05:22:39.636Z,79.89
2022-12-02T05:25:07.495Z,79.72
2022-12-02T05:27:35.740Z,79.64
2022-12-02T05:30:06.065Z,80.54
2022-12-02T05:32:33.326Z,80.67
2022-12-02T05:35:00.666Z,80.28
2022-12-02T05:37:28.014Z,80.45
2022-12-02T05:39:55.646Z,80.83
2022-12-02T05:42:23.345Z,81.23
2022-12-02T05:44:50.823Z,81.01
2022-12-02T05:47:19.948Z,81.41
2022-12-02T05:49:47.635Z,80.71
2022-12-02T05:52:25.070Z,80.98
2022-12-02T05:54:58.509Z,81.08
2022-12-02T05:57:30.911Z,80.98
2022-12-02T06:00:12.640Z,80.83
2022-12-02T06:02:46.656Z,80.87
2022-12-02T06:05:26.062Z,80.76
2022-12-02T06:07:59.568Z,80.73
2022-12-02T06:10:32.620Z,80.59
2022-12-02T06:13:14.683Z,80.49
2022-12-02T06:15:42.115Z,80.86
2022-12-02T06:18:23.479Z,80.99
2022-12-02T06:21:00.015Z,80.83
2022-12-02T06:23:31.467Z,80.59
2022-12-02T06:25:59.701Z,80.67
2022-12-02T06:28:30.788Z,81.24
2022-12-02T06:31:20.030Z,80.45
2022-12-02T06:33:50.418Z,80.59
2022-12-02T06:36:27.983Z,79.78
2022-12-02T06:38:57.777Z,79.89
2022-12-02T06:41:29.314Z,80.35
2022-12-02T06:44:30.574Z,79.89
2022-12-02T06:47:00.271Z,79.58
2022-12-02T06:49:38.270Z,79.99
2022-12-02T06:52:23.129Z,79.73
2022-12-02T06:54:53.490Z,79.77
2022-12-02T06:57:21.151Z,80.12
2022-12-02T06:59:49.590Z,80.26
2022-12-02T07:02:27.857Z,80.10
2022-12-02T07:04:55.921Z,80.07
2022-12-02T07:07:27.485Z,80.54
2022-12-02T07:10:00.904Z,80.21
2022-12-02T07:12:35.530Z,80.32
2022-12-02T07:15:32.141Z,80.41
2022-12-02T07:18:10.003Z,80.17
2022-12-02T07:20:39.847Z,80.24
2022-12-02T07:23:24.756Z,80.64
2022-12-02T07:25:54.432Z,80.80
2022-12-02T07:28:43.568Z,80.56
2022-12-02T07:31:23.138Z,80.46
2022-12-02T07:33:50.583Z,80.54
2022-12-02T07:36:18.718Z,80.48
2022-12-02T07:41:37.219Z,81.01
2022-12-02T07:44:05.861Z,81.16
2022-12-02T07:46:33.227Z,80.47
2022-12-02T07:49:00.494Z,80.79
2022-12-02T07:51:27.938Z,80.84
2022-12-02T07:53:55.284Z,80.23
2022-12-02T07:56:22.550Z,80.73
2022-12-02T08:01:37.148Z,80.24
2022-12-02T08:04:04.468Z,79.92
2022-12-02T08:06:37.363Z,80.21
2022-12-02T08:09:06.708Z,80.28
2022-12-02T08:11:34.011Z,79.43
2022-12-02T08:14:02.489Z,79.91
2022-12-02T08:16:30.308Z,79.49
2022-12-02T08:18:58.345Z,79.25
2022-12-02T08:21:25.795Z,78.99
2022-12-02T08:23:53.675Z,79.29
2022-12-02T08:26:21.386Z,79.00
2022-12-02T08:28:53.691Z,79.41
2022-12-02T08:31:22.808Z,79.26
2022-12-02T08:33:51.475Z,79.22
2022-12-02T08:36:19.975Z,79.46
2022-12-02T08:38:48.516Z,79.31
2022-12-02T08:41:16.556Z,79.84
2022-12-02T08:43:44.027Z,79.33
2022-12-02T08:46:12.600Z,79.43
2022-12-02T08:48:40.460Z,79.11
2022-12-02T08:51:08.550Z,79.42
2022-12-02T08:53:36.148Z,79.85
2022-12-02T08:56:03.426Z,79.40
2022-12-02T08:58:30.858Z,79.76
2022-12-02T09:00:58.287Z,80.00
2022-12-02T09:03:25.517Z,79.32
2022-12-02T09:05:52.802Z,79.22
2022-12-02T09:08:20.210Z,79.27
2022-12-02T09:10:47.970Z,79.23
2022-12-02T09:13:15.417Z,79.76
2022-12-02T09:15:42.809Z,79.43
2022-12-02T09:18:14.271Z,79.46
2022-12-02T09:20:42.020Z,78.80
2022-12-02T09:23:09.289Z,78.89
2022-12-02T09:25:36.528Z,79.14
2022-12-02T09:28:03.700Z,79.19
2022-12-02T09:30:30.962Z,78.93
2022-12-02T09:32:58.360Z,78.82
2022-12-02T09:35:25.761Z,79.02
2022-12-02T09:37:53.102Z,78.86
2022-12-02T09:40:21.259Z,79.46
2022-12-02T09:42:48.711Z,79.25
2022-12-02T09:45:16.163Z,79.30
2022-12-02T09:47:43.765Z,79.36
2022-12-02T09:50:17.954Z,79.39
2022-12-02T09:52:45.653Z,79.10
2022-12-02T09:55:16.209Z,78.86
2022-12-02T09:57:44.069Z,78.70
2022-12-02T10:00:16.105Z,79.47
2022-12-02T10:02:50.175Z,79.15
2022-12-02T10:05:23.269Z,78.89
2022-12-02T10:07:52.676Z,78.84
2022-12-02T10:10:23.871Z,79.05
2022-12-02T10:12:52.705Z,79.03
2022-12-02T10:15:28.247Z,79.56
2022-12-02T10:17:56.968Z,79.52
2022-12-02T10:20:28.995Z,79.41
2022-12-02T10:23:16.947Z,79.79
2022-12-02T10:25:49.770Z,79.24
2022-12-02T10:28:26.518Z,79.19
2022-12-02T10:31:16.151Z,79.04
2022-12-02T10:33:59.783Z,79.17
2022-12-02T10:36:45.198Z,78.62
2022-12-02T10:39:21.747Z,78.58
2022-12-02T10:41:51.389Z,78.22
2022-12-02T10:44:22.641Z,78.58
2022-12-02T10:46:50.002Z,78.05
2022-12-02T10:49:26.211Z,77.07
2022-12-02T10:51:55.173Z,77.45
2022-12-02T10:54:29.607Z,77.47
2022-12-02T10:56:57.478Z,77.61
2022-12-02T10:59:24.856Z,77.03
2022-12-02T11:01:52.187Z,77.58
2022-12-02T11:04:20.356Z,77.12
2022-12-02T11:06:49.491Z,77.46
2022-12-02T11:09:39.611Z,77.30
2022-12-02T11:12:30.458Z,76.92
2022-12-02T11:14:57.818Z,77.78
2022-12-02T11:17:53.566Z,77.58
2022-12-02T11:20:35.864Z,77.10
2022-12-02T11:23:18.247Z,77.25
2022-12-02T11:25:47.956Z,77.16
2022-12-02T11:28:31.485Z,77.18
2022-12-02T11:31:11.245Z,77.80
2022-12-02T11:34:06.199Z,77.53
2022-12-02T11:36:36.247Z,77.56
2022-12-02T11:39:08.892Z,77.92
2022-12-02T11:41:48.124Z,77.33
2022-12-02T11:44:27.096Z,77.65
2022-12-02T11:47:04.800Z,77.68
2022-12-02T11:49:41.793Z,77.87
2022-12-02T11:52:09.335Z,77.54
2022-12-02T11:54:41.953Z,77.55
2022-12-02T11:57:22.545Z,77.79
2022-12-02T11:59:50.620Z,77.33
2022-12-02T12:02:20.328Z,77.69
2022-12-02T12:04:59.415Z,77.75
2022-12-02T12:07:41.818Z,77.72
2022-12-02T12:10:27.807Z,77.61
2022-12-02T12:13:15.978Z,77.19
2022-12-02T12:15:59.642Z,77.88
2022-12-02T12:18:45.164Z,77.68
2022-12-02T12:21:35.731Z,77.62
2022-12-02T12:24:18.594Z,77.93
2022-12-02T12:26:51.189Z,77.83
2022-12-02T12:29:20.577Z,77.10
2022-12-02T12:31:48.305Z,77.65
2022-12-02T12:34:19.014Z,77.83
2022-12-02T12:36:47.266Z,77.32
2022-12-02T12:39:15.508Z,77.92
2022-12-02T12:42:00.098Z,77.66
2022-12-02T12:44:30.618Z,77.82
2022-12-02T12:47:00.279Z,78.11
2022-12-02T12:49:28.530Z,77.64
2022-12-02T12:51:56.072Z,77.44
2022-12-02T12:54:23.311Z,78.04
2022-12-02T12:56:50.680Z,77.70
2022-12-02T12:59:18.013Z,78.34
2022-12-02T13:01:45.453Z,77.72
2022-12-02T13:04:12.913Z,77.60
2022-12-02T13:06:42.945Z,77.91
2022-12-02T13:09:12.510Z,77.71
2022-12-02T13:11:40.764Z,77.63
2022-12-02T13:14:08.910Z,77.10
2022-12-02T13:16:36.521Z,77.86
2022-12-02T13:19:04.300Z,77.11
2022-12-02T13:21:31.595Z,77.49
2022-12-02T13:23:58.990Z,77.29
2022-12-02T13:26:26.311Z,77.38
2022-12-02T13:28:53.772Z,76.48
2022-12-02T13:31:21.449Z,77.30
2022-12-02T13:33:48.726Z,77.16
2022-12-02T13:36:16.524Z,77.19
2022-12-02T13:38:43.855Z,77.54
2022-12-02T13:41:11.685Z,77.23
2022-12-02T13:43:39.296Z,77.08
2022-12-02T13:46:08.752Z,76.98
2022-12-02T13:48:36.904Z,77.22
2022-12-02T13:51:04.986Z,77.28
2022-12-02T13:53:32.746Z,77.49
2022-12-02T13:56:00.387Z,77.02
2022-12-02T13:58:28.656Z,77.73
2022-12-02T14:00:55.905Z,76.90
2022-12-02T14:03:23.831Z,77.52
2022-12-02T14:05:51.865Z,77.94
2022-12-02T14:08:19.871Z,77.44
2022-12-02T14:10:47.346Z,77.84
2022-12-02T14:13:19.483Z,77.59
2022-12-02T14:15:47.043Z,77.64
2022-12-02T14:18:14.480Z,77.69
2022-12-02T14:20:41.744Z,77.53
2022-12-02T14:23:11.987Z,77.33
2022-12-02T14:25:39.408Z,77.62
2022-12-02T14:28:06.578Z,77.53
2022-12-02T14:30:34.075Z,77.70
2022-12-02T14:33:01.351Z,77.66
2022-12-02T14:35:28.842Z,77.68
2022-12-02T14:37:56.360Z,77.44
2022-12-02T14:40:23.757Z,77.84
2022-12-02T14:42:51.102Z,77.87
2022-12-02T14:45:18.635Z,77.29
2022-12-02T14:47:45.953Z,77.55
2022-12-02T14:50:13.319Z,77.30
2022-12-02T14:52:40.713Z,77.20
2022-12-02T14:55:08.541Z,76.89
2022-12-02T14:57:35.943Z,77.43
2022-12-02T15:00:04.789Z,77.62
2022-12-02T15:02:32.150Z,77.00
2022-12-02T15:04:59.550Z,77.56
2022-12-02T15:07:26.942Z,76.98
2022-12-02T15:09:54.343Z,77.08
2022-12-02T15:12:21.740Z,77.27
2022-12-02T15:14:49.043Z,77.50
2022-12-02T15:17:16.464Z,77.29
2022-12-02T15:19:43.694Z,77.20
2022-12-02T15:22:10.937Z,77.78
2022-12-02T15:24:38.183Z,77.37
2022-12-02T15:27:05.752Z,77.11
2022-12-02T15:29:33.058Z,77.26
2022-12-02T15:32:00.522Z,77.12
2022-12-02T15:34:27.875Z,77.14
2022-12-02T15:36:55.267Z,76.92
2022-12-02T15:39:22.644Z,77.19
2022-12-02T15:41:49.955Z,77.61
2022-12-02T15:44:17.204Z,77.03
2022-12-02T15:46:44.694Z,77.44
2022-12-02T15:49:12.026Z,77.18
2022-12-02T15:51:39.365Z,77.06
2022-12-02T15:54:06.795Z,77.46
2022-12-02T15:56:34.547Z,78.03
2022-12-02T15:59:02.211Z,77.48
2022-12-02T16:01:29.952Z,77.73
2022-12-02T16:03:57.463Z,77.57
2022-12-02T16:06:24.931Z,77.83
2022-12-02T16:08:55.450Z,77.97
2022-12-02T16:11:23.495Z,78.13
2022-12-02T16:13:52.898Z,78.21
2022-12-02T16:16:21.682Z,78.43
2022-12-02T16:18:50.082Z,78.00
2022-12-02T16:21:18.736Z,77.49
2022-12-02T16:23:46.709Z,78.00
2022-12-02T16:26:14.165Z,77.54
2022-12-02T16:28:43.878Z,77.77
2022-12-02T16:31:11.853Z,77.56
2022-12-02T16:33:39.247Z,77.81
2022-12-02T16:36:09.236Z,78.19
2022-12-02T16:38:36.705Z,78.36
2022-12-02T16:41:04.798Z,77.66
2022-12-02T16:43:32.626Z,78.21
2022-12-02T16:46:00.414Z,78.02
2022-12-02T16:48:28.327Z,78.39
2022-12-02T16:50:56.324Z,78.16
2022-12-02T16:53:24.085Z,78.76
2022-12-02T16:55:51.840Z,78.74
2022-12-02T16:58:19.576Z,78.51
2022-12-02T17:00:47.405Z,78.26
2022-12-02T17:03:15.146Z,78.54
2022-12-02T17:05:44.248Z,78.68
2022-12-02T17:08:12.421Z,78.92
2022-12-02T17:10:40.185Z,79.63
2022-12-02T17:13:07.884Z,79.06
2022-12-02T17:15:35.626Z,79.03
2022-12-02T17:18:03.347Z,79.41
2022-12-02T17:20:30.887Z,79.50
2022-12-02T17:22:59.500Z,79.34
2022-12-02T17:25:27.187Z,79.56
2022-12-02T17:27:55.046Z,79.63
2022-12-02T17:30:23.015Z,79.94
2022-12-02T17:32:56.321Z,79.71
2022-12-02T17:35:24.837Z,79.52
2022-12-02T17:37:52.716Z,79.54
2022-12-02T17:40:20.585Z,79.90
2022-12-02T17:42:48.185Z,79.83
2022-12-02T17:45:15.936Z,79.60
2022-12-02T17:47:43.505Z,79.15
2022-12-02T17:50:14.510Z,79.61
2022-12-02T17:52:43.056Z,79.78
2022-12-02T17:55:11.093Z,79.39
2022-12-02T17:57:38.884Z,79.06
2022-12-02T18:00:07.215Z,79.50
2022-12-02T18:02:34.770Z,78.87
2022-12-02T18:05:03.097Z,79.03
2022-12-02T18:07:33.916Z,79.26
2022-12-02T18:10:01.947Z,78.89
2022-12-02T18:12:29.717Z,79.34
2022-12-02T18:14:57.807Z,79.32
2022-12-02T18:17:25.665Z,79.61
2022-12-02T18:19:54.879Z,79.98
2022-12-02T18:22:22.565Z,79.27
2022-12-02T18:24:50.619Z,79.20
2022-12-02T18:27:18.686Z,79.13
2022-12-02T18:29:47.085Z,79.56
2022-12-02T18:32:14.785Z,79.38
2022-12-02T18:34:42.755Z,79.48
2022-12-02T18:37:12.328Z,79.76
2022-12-02T18:39:40.106Z,79.68
2022-12-02T18:42:07.835Z,79.63
2022-12-02T18:44:35.597Z,79.58
2022-12-02T18:47:03.405Z,79.44
2022-12-02T18:49:31.136Z,79.27
2022-12-02T18:51:59.225Z,79.25
2022-12-02T18:54:27.587Z,79.04
2022-12-02T18:56:56.375Z,78.97
2022-12-02T18:59:23.725Z,79.08
2022-12-02T19:01:51.463Z,78.99
2022-12-02T19:04:20.195Z,79.12
2022-12-02T19:06:47.859Z,79.03
2022-12-02T19:09:15.978Z,79.09
2022-12-02T19:11:43.201Z,79.19
2022-12-02T19:14:10.358Z,78.88
2022-12-02T19:16:38.080Z,79.42
2022-12-02T19:19:05.795Z,78.83
2022-12-02T19:21:33.126Z,79.49
2022-12-02T19:24:00.378Z,78.97
2022-12-02T19:26:27.787Z,78.96
2022-12-02T19:28:55.205Z,78.88
2022-12-02T19:31:22.680Z,79.26
2022-12-02T19:33:50.067Z,79.18
2022-12-02T19:36:17.743Z,79.32
2022-12-02T19:38:45.130Z,79.37
2022-12-02T19:41:12.426Z,79.38
2022-12-02T19:43:40.013Z,79.28
2022-12-02T19:46:07.328Z,78.68
2022-12-02T19:48:34.779Z,78.82
2022-12-02T19:51:02.224Z,78.62
2022-12-02T19:53:29.530Z,78.67
2022-12-02T19:55:56.737Z,78.20
2022-12-02T19:58:23.950Z,79.17
2022-12-02T20:00:51.397Z,79.10
2022-12-02T20:03:18.730Z,78.95
2022-12-02T20:05:46.276Z,79.06
2022-12-02T20:08:13.599Z,79.52
2022-12-02T20:10:40.925Z,79.14
2022-12-02T20:13:08.157Z,79.59
2022-12-02T20:15:35.528Z,79.81
2022-12-02T20:18:02.813Z,79.53
2022-12-02T20:20:30.185Z,79.66
2022-12-02T20:22:57.417Z,79.54
2022-12-02T20:25:24.701Z,79.30
2022-12-02T20:27:54.664Z,79.73
2022-12-02T20:30:22.751Z,80.47
2022-12-02T20:32:50.215Z,79.40
2022-12-02T20:35:17.619Z,79.96
2022-12-02T20:37:45.168Z,79.76
2022-12-02T20:40:14.642Z,80.00
2022-12-02T20:42:42.302Z,80.18
2022-12-02T20:45:11.450Z,81.22
2022-12-02T20:47:38.738Z,80.62
2022-12-02T20:50:06.534Z,80.69
2022-12-02T20:52:33.856Z,80.20
2022-12-02T20:55:01.423Z,80.53
2022-12-02T20:57:28.700Z,80.68
2022-12-02T20:59:56.072Z,80.02
2022-12-02T21:02:23.406Z,79.63
2022-12-02T21:04:50.996Z,79.93
2022-12-02T21:07:18.624Z,80.84
2022-12-02T21:09:46.080Z,79.89
2022-12-02T21:12:13.476Z,80.28
2022-12-02T21:14:40.947Z,79.98
2022-12-02T21:17:08.194Z,80.00
2022-12-02T21:19:35.734Z,80.53
2022-12-02T21:22:03.004Z,79.77
2022-12-02T21:24:30.364Z,80.48
2022-12-02T21:26:57.866Z,80.50
2022-12-02T21:29:25.650Z,80.19
2022-12-02T21:31:53.426Z,79.83
2022-12-02T21:34:21.262Z,80.52
2022-12-02T21:36:48.875Z,79.89
2022-12-02T21:39:16.616Z,79.86
2022-12-02T21:41:45.365Z,79.30
2022-12-02T21:44:13.159Z,79.53
2022-12-02T21:46:40.889Z,79.56
2022-12-02T21:49:08.700Z,79.99
2022-12-02T21:51:36.276Z,79.73
2022-12-02T21:54:04.339Z,80.13
2022-12-02T21:56:36.429Z,80.08
2022-12-02T21:59:05.095Z,80.52
2022-12-02T22:01:38.972Z,81.00
2022-12-02T22:04:08.226Z,80.41
2022-12-02T22:06:35.906Z,80.89
2022-12-02T22:09:04.936Z,80.22
2022-12-02T22:11:32.684Z,81.30
2022-12-02T22:14:01.065Z,81.02
2022-12-02T22:16:28.887Z,81.02
2022-12-02T22:18:56.472Z,81.13
2022-12-02T22:21:24.595Z,81.35
2022-12-02T22:23:52.475Z,81.50
2022-12-02T22:26:20.445Z,81.24
2022-12-02T22:28:48.326Z,81.44
2022-12-02T22:31:16.046Z,81.39
2022-12-02T22:33:43.605Z,81.95
2022-12-02T22:36:11.646Z,81.41
2022-12-02T22:38:39.395Z,81.25
2022-12-02T22:41:07.186Z,81.85
2022-12-02T22:43:34.786Z,81.68
2022-12-02T22:46:02.715Z,81.97
2022-12-02T22:48:30.205Z,82.00
2022-12-02T22:50:57.657Z,82.64
2022-12-02T22:53:25.275Z,82.54
2022-12-02T22:55:53.255Z,82.86
2022-12-02T22:58:21.075Z,83.13
2022-12-02T23:00:48.904Z,83.26
2022-12-02T23:03:16.755Z,83.25
2022-12-02T23:05:44.177Z,83.52
2022-12-02T23:08:14.309Z,83.35
2022-12-02T23:10:42.230Z,83.33
2022-12-02T23:13:11.641Z,83.53
2022-12-02T23:15:42.572Z,84.00
2022-12-02T23:18:10.810Z,84.09
2022-12-02T23:20:38.772Z,84.03
2022-12-02T23:23:06.093Z,84.67
2022-12-02T23:25:33.420Z,84.80
2022-12-02T23:28:01.216Z,84.67
2022-12-02T23:30:29.738Z,84.80
2022-12-02T23:33:00.294Z,84.89
2022-12-02T23:35:28.053Z,85.22
2022-12-02T23:37:55.369Z,85.11
2022-12-02T23:40:22.745Z,85.62
2022-12-02T23:42:50.076Z,85.49
2022-12-02T23:45:17.412Z,85.26
2022-12-02T23:47:44.720Z,84.69
2022-12-02T23:50:12.408Z,85.21
2022-12-02T23:52:39.603Z,84.73
2022-12-02T23:55:07.439Z,84.98
2022-12-02T23:57:34.712Z,85.49
